Time;durP1;ratioP1;P1;durP2;ratioP2;P2;SDS_P1;SDS_P2;PMS_P1;PMS_P2;Temp;Humidity;BMP_temperature;BMP_pressure;BME280_temperature;BME280_humidity;BME280_pressure;Samples;Min_cycle;Max_cycle;Signal;HPM_P1;HPM_P2
2023/10/04 00:01:25;;;;;;;;;2.67;1.67;;;;;21.52;61.94;101543.44;5078156;28;45645;-70
2023/10/04 00:03:51;;;;;;;;;2.00;2.00;;;;;21.46;62.18;101541.66;5071039;28;45534;-89
2023/10/04 00:06:17;;;;;;;;;3.67;2.00;;;;;21.34;61.96;101542.50;5059526;28;45341;-87
2023/10/04 00:08:43;;;;;;;;;1.00;1.00;;;;;21.41;61.87;101544.28;5071978;28;45477;-88
2023/10/04 00:11:14;;;;;;;;;1.33;1.00;;;;;21.34;62.21;101531.88;5061406;28;45407;-89
2023/10/04 00:13:43;;;;;;;;;2.00;1.00;;;;;21.39;62.01;101534.56;5058971;28;45450;-89
2023/10/04 00:16:10;;;;;;;;;3.00;1.33;;;;;21.26;62.40;101521.22;5068764;28;45640;-83
2023/10/04 00:18:36;;;;;;;;;1.00;1.00;;;;;21.19;62.54;101527.44;5078869;28;45309;-87
2023/10/04 00:21:06;;;;;;;;;4.00;2.00;;;;;21.20;62.85;101539.81;5061687;28;45405;-89
2023/10/04 00:23:32;;;;;;;;;1.67;1.00;;;;;21.03;63.52;101526.53;5071733;28;45510;-82
2023/10/04 00:25:57;;;;;;;;;3.00;2.00;;;;;21.19;63.29;101543.38;5069573;28;45614;-89
2023/10/04 00:28:23;;;;;;;;;1.00;1.00;;;;;21.18;62.79;101538.06;5078897;28;46021;-82
2023/10/04 00:30:49;;;;;;;;;2.00;2.00;;;;;21.20;62.78;101539.81;5077245;28;45436;-90
2023/10/04 00:33:15;;;;;;;;;1.00;1.00;;;;;21.20;62.67;101538.94;5071152;28;45394;-88
2023/10/04 00:35:40;;;;;;;;;2.00;1.00;;;;;21.18;63.00;101535.41;5069695;28;45471;-89
2023/10/04 00:38:08;;;;;;;;;3.33;2.00;;;;;21.21;63.08;101536.28;5060023;28;45486;-87
2023/10/04 00:40:34;;;;;;;;;1.00;0.00;;;;;21.16;63.23;101532.72;5075348;28;45525;-90
2023/10/04 00:43:02;;;;;;;;;2.00;1.00;;;;;21.13;63.47;101538.06;5065392;28;45284;-89
2023/10/04 00:45:32;;;;;;;;;1.33;1.33;;;;;21.17;63.33;101531.88;5057605;28;45462;-89
2023/10/04 00:47:59;;;;;;;;;1.00;1.00;;;;;21.21;63.66;101530.09;5066110;28;45500;-88
2023/10/04 00:50:32;;;;;;;;;1.00;1.00;;;;;21.21;63.06;101533.63;5066053;28;45451;-71
2023/10/04 00:53:14;;;;;;;;;2.00;2.00;;;;;21.28;63.08;101531.00;5059153;28;45585;-86
2023/10/04 00:55:43;;;;;;;;;1.00;1.00;;;;;21.27;62.63;101524.78;5071329;28;45414;-71
2023/10/04 00:58:13;;;;;;;;;2.33;1.33;;;;;21.24;62.72;101509.72;5069992;28;46187;-90
2023/10/04 01:00:40;;;;;;;;;2.00;2.00;;;;;21.16;63.10;101499.97;5077447;28;45489;-74
2023/10/04 01:03:10;;;;;;;;;0.33;0.33;;;;;21.00;63.46;101510.56;5059045;28;45453;-78
2023/10/04 01:05:45;;;;;;;;;2.00;1.67;;;;;20.96;64.22;101523.84;5048963;28;46215;-87
2023/10/04 01:08:13;;;;;;;;;1.33;1.00;;;;;20.93;63.57;101515.84;5045932;28;47229;-71
2023/10/04 01:10:39;;;;;;;;;3.33;2.00;;;;;20.95;63.92;101508.75;5075823;28;45553;-89
2023/10/04 01:13:09;;;;;;;;;2.00;1.00;;;;;21.00;64.09;101507.03;5078091;28;45467;-85
2023/10/04 01:15:39;;;;;;;;;2.00;1.00;;;;;21.02;63.74;101490.19;5067899;28;45344;-89
2023/10/04 01:18:09;;;;;;;;;1.00;1.00;;;;;21.14;63.43;101501.72;5068979;28;45355;-90
2023/10/04 01:20:37;;;;;;;;;1.00;1.00;;;;;21.12;63.14;101490.22;5061889;28;45418;-86
2023/10/04 01:23:05;;;;;;;;;1.33;1.33;;;;;21.17;63.36;101492.00;5077402;28;45518;-90
2023/10/04 01:25:37;;;;;;;;;2.67;1.00;;;;;21.17;63.14;101476.06;5078030;28;45963;-81
2023/10/04 01:28:47;;;;;;;;;1.00;1.00;;;;;21.20;63.10;101486.69;5076240;28;45521;-89
2023/10/04 01:30:55;;;;;;;;;1.00;1.00;;;;;21.24;62.72;101480.47;5060434;28;45412;-90
2023/10/04 01:33:22;;;;;;;;;1.33;1.00;;;;;21.25;62.48;101468.09;5053819;27;45519;-90
2023/10/04 01:35:49;;;;;;;;;2.00;1.00;;;;;21.33;63.09;101462.75;5058056;28;45488;-90
2023/10/04 01:38:16;;;;;;;;;1.00;0.33;;;;;21.33;63.24;101460.09;5062578;28;46070;-80
2023/10/04 01:40:47;;;;;;;;;2.00;2.00;;;;;21.41;62.67;101456.56;5068629;28;45378;-89
2023/10/04 01:43:17;;;;;;;;;2.00;2.00;;;;;21.43;62.27;101446.00;5067268;28;45350;-77
2023/10/04 01:45:59;;;;;;;;;1.00;1.00;;;;;21.49;62.90;101447.72;5070302;28;45587;-90
2023/10/04 01:48:27;;;;;;;;;1.00;1.00;;;;;21.50;62.41;101436.22;5059043;28;46653;-79
2023/10/04 01:50:53;;;;;;;;;2.00;1.00;;;;;21.53;62.45;101441.56;5074359;28;46109;-89
2023/10/04 01:53:26;;;;;;;;;2.00;1.67;;;;;21.54;62.79;101428.22;5077715;28;45440;-90
2023/10/04 01:55:54;;;;;;;;;2.33;2.33;;;;;21.55;63.26;101434.47;5077740;28;45355;-90
2023/10/04 01:58:23;;;;;;;;;2.00;2.00;;;;;21.55;63.05;101440.66;5076734;28;45464;-89
2023/10/04 02:00:53;;;;;;;;;1.33;1.00;;;;;21.50;62.99;101437.09;5057375;28;45523;-87
2023/10/04 02:03:20;;;;;;;;;1.33;1.00;;;;;21.51;63.28;101420.28;5057564;28;45485;-90
2023/10/04 02:05:48;;;;;;;;;1.00;1.00;;;;;21.48;63.45;101412.28;5069171;28;45562;-87
2023/10/04 02:08:14;;;;;;;;;2.00;2.00;;;;;21.41;63.40;101406.06;5051541;28;46305;-73
2023/10/04 02:10:44;;;;;;;;;2.00;2.00;;;;;21.39;63.40;101418.47;5076415;28;45194;-89
2023/10/04 02:13:15;;;;;;;;;2.00;1.00;;;;;21.45;63.31;101412.31;5058388;28;45364;-90
2023/10/04 02:15:42;;;;;;;;;3.33;2.00;;;;;21.47;62.90;101407.88;5065529;28;45213;-85
2023/10/04 02:18:08;;;;;;;;;2.00;2.00;;;;;21.45;62.63;101407.00;5057425;28;45332;-90
2023/10/04 02:20:35;;;;;;;;;2.00;1.00;;;;;21.42;63.23;101426.44;5073331;28;45564;-89
2023/10/04 02:23:03;;;;;;;;;0.67;0.67;;;;;21.43;63.14;101427.38;5071757;28;45552;-88
2023/10/04 02:25:29;;;;;;;;;5.00;2.00;;;;;21.34;63.46;101419.38;5057360;28;45608;-89
2023/10/04 02:28:01;;;;;;;;;4.00;1.33;;;;;21.39;63.50;101420.25;5070499;28;46165;-89
2023/10/04 02:30:27;;;;;;;;;1.00;1.00;;;;;21.42;63.40;101428.22;5058360;28;45669;-89
2023/10/04 02:32:53;;;;;;;;;3.00;2.00;;;;;21.36;62.94;101412.28;5057279;28;45371;-89
2023/10/04 02:37:59;;;;;;;;;1.00;0.00;;;;;21.39;63.08;101420.25;5073034;28;45960;-89
2023/10/04 02:40:27;;;;;;;;;2.00;1.00;;;;;21.50;62.81;101437.09;5057470;28;45583;-89
2023/10/04 02:42:58;;;;;;;;;1.00;1.00;;;;;21.52;63.11;101435.31;5068254;28;45328;-89
2023/10/04 02:45:26;;;;;;;;;1.33;1.33;;;;;21.52;62.65;101423.81;5060823;28;45612;-89
2023/10/04 02:47:52;;;;;;;;;1.00;1.00;;;;;21.51;62.90;101422.06;5073244;28;45477;-89
2023/10/04 02:50:20;;;;;;;;;3.33;2.00;;;;;21.52;62.97;101437.09;5068954;28;45484;-89
2023/10/04 02:52:47;;;;;;;;;1.00;1.00;;;;;21.53;63.06;101436.22;5062078;28;45417;-90
2023/10/04 02:55:17;;;;;;;;;1.00;1.00;;;;;21.55;63.19;101442.44;5076875;28;45466;-89
2023/10/04 02:57:45;;;;;;;;;1.67;1.67;;;;;21.57;62.84;101430.91;5058618;28;45496;-90
2023/10/04 03:00:16;;;;;;;;;2.00;1.00;;;;;21.55;63.42;101427.38;5075674;28;45374;-89
2023/10/04 03:02:43;;;;;;;;;3.00;2.00;;;;;21.55;62.57;101429.16;5061395;28;45857;-89
2023/10/04 03:05:09;;;;;;;;;1.33;1.00;;;;;21.51;63.09;101425.59;5064594;28;45545;-84
2023/10/04 03:07:34;;;;;;;;;2.00;1.00;;;;;21.52;62.58;101432.66;5065344;28;46134;-81
2023/10/04 03:10:00;;;;;;;;;2.00;2.00;;;;;21.50;62.73;101434.44;5082320;28;45437;-90
2023/10/04 03:12:26;;;;;;;;;4.33;2.00;;;;;21.47;62.69;101425.56;5085039;28;45312;-71
2023/10/04 03:14:52;;;;;;;;;3.67;2.67;;;;;21.43;63.02;101422.94;5066785;28;45363;-71
2023/10/04 03:17:19;;;;;;;;;2.00;2.00;;;;;21.45;62.80;101409.66;5060456;28;45569;-71
2023/10/04 03:19:47;;;;;;;;;3.33;2.00;;;;;21.38;63.42;101424.66;5058464;28;45369;-71
2023/10/04 03:22:19;;;;;;;;;1.67;1.67;;;;;21.36;63.45;101436.19;5086824;28;45462;-90
2023/10/04 03:24:51;;;;;;;;;2.00;2.00;;;;;21.32;64.45;101437.09;5073041;28;45397;-87
2023/10/04 03:27:21;;;;;;;;;3.00;2.00;;;;;21.22;64.28;101420.25;5056772;28;45554;-86
2023/10/04 03:29:51;;;;;;;;;1.00;1.00;;;;;21.25;64.66;101436.22;5057068;28;45430;-90
2023/10/04 03:32:18;;;;;;;;;3.00;3.00;;;;;21.19;64.81;101434.44;5056319;28;45734;-89
2023/10/04 03:34:44;;;;;;;;;3.00;3.00;;;;;21.18;64.49;101431.78;5057184;28;45591;-90
2023/10/04 03:37:15;;;;;;;;;1.00;1.00;;;;;21.15;64.16;101432.66;5056154;28;45434;-90
2023/10/04 03:39:41;;;;;;;;;1.33;1.33;;;;;21.18;63.76;101424.69;5056505;28;45316;-89
2023/10/04 03:42:10;;;;;;;;;1.33;1.33;;;;;21.28;64.12;101440.63;5060766;28;45608;-89
2023/10/04 03:44:36;;;;;;;;;3.00;1.33;;;;;21.37;64.00;101446.84;5056592;28;45691;-89
2023/10/04 03:47:02;;;;;;;;;2.00;2.00;;;;;21.35;64.22;101442.41;5062696;28;45465;-90
2023/10/04 03:49:28;;;;;;;;;2.67;2.00;;;;;21.41;63.37;101445.06;5075657;28;45493;-89
2023/10/04 03:51:56;;;;;;;;;2.00;1.33;;;;;21.34;62.83;101445.94;5076096;28;45339;-89
2023/10/04 03:54:22;;;;;;;;;2.00;2.00;;;;;21.30;62.95;101446.84;5064739;28;46053;-89
2023/10/04 03:56:47;;;;;;;;;2.00;2.00;;;;;21.21;62.42;101445.06;5071219;28;45977;-90
2023/10/04 03:59:13;;;;;;;;;1.00;1.00;;;;;21.11;63.00;101449.50;5074838;28;45465;-88
2023/10/04 04:01:39;;;;;;;;;4.00;2.00;;;;;21.05;63.35;101442.41;5068828;28;45505;-90
2023/10/04 04:04:06;;;;;;;;;2.00;1.00;;;;;20.97;63.13;101436.19;5066237;28;45774;-89
2023/10/04 04:06:32;;;;;;;;;2.00;2.00;;;;;20.89;63.43;101431.72;5042883;28;45589;-90
2023/10/04 04:09:01;;;;;;;;;1.67;1.67;;;;;20.94;63.07;101444.13;5062212;28;45622;-89
2023/10/04 04:11:27;;;;;;;;;4.00;2.67;;;;;20.99;62.93;101437.06;5072477;28;46264;-90
2023/10/04 04:13:55;;;;;;;;;2.00;2.00;;;;;20.97;63.13;101438.84;5070849;28;45488;-89
2023/10/04 04:16:21;;;;;;;;;2.33;2.00;;;;;20.99;63.29;101449.44;5063512;28;45506;-71
2023/10/04 04:18:47;;;;;;;;;2.00;2.00;;;;;20.96;62.94;101441.50;5063434;28;45298;-84
2023/10/04 04:21:14;;;;;;;;;3.00;2.00;;;;;20.85;63.54;101431.75;5071929;28;45590;-89
2023/10/04 04:23:41;;;;;;;;;2.00;1.00;;;;;20.90;63.35;101429.09;5071507;28;45771;-80
2023/10/04 04:26:07;;;;;;;;;2.00;2.00;;;;;20.93;62.85;101431.75;5077966;28;45473;-80
2023/10/04 04:28:41;;;;;;;;;2.67;2.00;;;;;20.98;62.82;101437.06;5074716;28;45569;-90
2023/10/04 04:31:14;;;;;;;;;2.33;2.00;;;;;20.91;62.74;101433.53;5068441;28;45556;-88
2023/10/04 04:33:40;;;;;;;;;1.67;1.00;;;;;20.98;62.47;101445.03;5065761;28;45497;-88
2023/10/04 04:36:15;;;;;;;;;4.00;3.00;;;;;20.94;62.50;101429.97;5055693;28;45478;-89
2023/10/04 04:38:41;;;;;;;;;2.00;2.00;;;;;20.98;62.36;101431.75;5059640;28;45422;-89
2023/10/04 04:41:12;;;;;;;;;2.33;2.00;;;;;21.01;62.42;101439.75;5068592;28;45515;-89
2023/10/04 04:43:38;;;;;;;;;3.67;2.00;;;;;20.95;62.44;101426.44;5078969;28;45438;-89
2023/10/04 04:46:12;;;;;;;;;4.67;4.67;;;;;20.84;62.53;101418.47;5074912;28;45890;-89
2023/10/04 04:48:40;;;;;;;;;3.33;2.67;;;;;20.89;62.79;101442.34;5044915;28;45331;-89
2023/10/04 04:51:11;;;;;;;;;3.33;2.00;;;;;20.88;62.50;101430.84;5058898;28;45394;-88
2023/10/04 04:53:42;;;;;;;;;2.00;2.00;;;;;20.93;62.80;101438.81;5074091;28;45625;-70
2023/10/04 04:56:14;;;;;;;;;2.00;2.00;;;;;20.87;62.93;101434.41;5072342;28;45777;-71
2023/10/04 04:58:41;;;;;;;;;3.00;3.00;;;;;20.83;63.01;101436.16;5068082;28;45504;-70
2023/10/04 05:01:14;;;;;;;;;2.33;2.00;;;;;20.80;63.08;101436.16;5071408;28;45406;-70
2023/10/04 05:03:45;;;;;;;;;4.00;3.00;;;;;20.77;63.68;101435.25;5064511;28;45629;-71
2023/10/04 05:06:18;;;;;;;;;1.00;1.00;;;;;20.70;63.79;101423.75;5066812;28;45436;-70
2023/10/04 05:08:44;;;;;;;;;2.00;2.00;;;;;20.76;63.68;101431.72;5078588;28;45472;-70
2023/10/04 05:11:10;;;;;;;;;3.00;2.33;;;;;20.75;64.42;101431.69;5068580;28;45400;-70
2023/10/04 05:13:36;;;;;;;;;1.00;1.00;;;;;20.73;63.47;101425.50;5060367;28;45412;-89
2023/10/04 05:16:04;;;;;;;;;2.00;1.67;;;;;20.75;63.87;101421.09;5074188;28;46101;-70
2023/10/04 05:18:30;;;;;;;;;3.00;2.33;;;;;20.80;64.21;101440.59;5058969;28;45462;-89
2023/10/04 05:20:55;;;;;;;;;4.00;3.67;;;;;20.70;64.15;101409.59;5078965;28;45470;-85
2023/10/04 05:23:23;;;;;;;;;3.00;2.00;;;;;20.88;63.77;101429.97;5078039;28;45213;-87
2023/10/04 05:25:52;;;;;;;;;2.00;2.00;;;;;20.88;64.04;101422.00;5076396;28;46057;-83
2023/10/04 05:28:19;;;;;;;;;2.00;1.33;;;;;20.94;64.37;101416.69;5055580;28;45533;-77
2023/10/04 05:30:46;;;;;;;;;3.67;2.33;;;;;20.92;64.50;101434.41;5055841;28;45524;-82
2023/10/04 05:33:18;;;;;;;;;2.00;2.00;;;;;20.90;64.17;101423.78;5057562;28;45598;-71
2023/10/04 05:35:45;;;;;;;;;1.00;1.00;;;;;20.90;64.47;101426.44;5072670;28;45538;-89
2023/10/04 05:38:14;;;;;;;;;2.33;2.00;;;;;20.98;64.31;101437.94;5076538;28;45185;-88
2023/10/04 05:40:43;;;;;;;;;4.00;2.00;;;;;20.95;64.76;101421.13;5047380;28;45592;-70
2023/10/04 05:43:10;;;;;;;;;2.67;2.67;;;;;21.00;64.42;101438.84;5056577;28;45525;-70
2023/10/04 05:45:36;;;;;;;;;3.00;3.00;;;;;21.08;64.28;101432.66;5057083;28;46038;-71
2023/10/04 05:48:04;;;;;;;;;1.33;1.33;;;;;21.08;64.43;101430.88;5071915;28;45253;-71
2023/10/04 05:50:32;;;;;;;;;4.67;4.00;;;;;21.09;64.76;101435.31;5073997;28;45332;-71
2023/10/04 05:53:00;;;;;;;;;1.00;0.00;;;;;21.08;64.76;101444.16;5059390;28;45449;-70
2023/10/04 05:55:26;;;;;;;;;3.00;3.00;;;;;21.06;64.88;101437.97;5066345;28;45445;-71
2023/10/04 05:57:55;;;;;;;;;3.00;2.00;;;;;21.08;64.60;101435.31;5058664;28;45338;-70
2023/10/04 06:00:33;;;;;;;;;2.00;2.00;;;;;21.12;64.86;101445.94;5056882;28;45554;-71
2023/10/04 06:03:07;;;;;;;;;2.67;2.00;;;;;21.11;65.30;101438.88;5059913;28;45799;-70
2023/10/04 06:05:35;;;;;;;;;2.00;2.00;;;;;21.11;64.91;101441.53;5070234;28;45478;-72
2023/10/04 06:08:10;;;;;;;;;2.00;1.33;;;;;21.09;64.79;101440.63;5074537;28;45538;-89
2023/10/04 06:10:36;;;;;;;;;3.00;2.33;;;;;21.09;65.21;101445.94;5052099;28;45422;-71
2023/10/04 06:13:02;;;;;;;;;2.00;2.00;;;;;21.08;65.32;101443.28;5067496;28;45471;-71
2023/10/04 06:15:30;;;;;;;;;1.67;1.67;;;;;21.05;64.81;101444.19;5075871;28;45262;-70
2023/10/04 06:17:57;;;;;;;;;19.50;18.50;;;;;21.14;64.71;101446.81;5076729;28;45426;-90
2023/10/04 06:20:33;;;;;;;;;13.67;11.67;;;;;21.10;64.68;101442.38;5073464;28;45802;-86
2023/10/04 06:23:06;;;;;;;;;4.33;4.00;;;;;21.07;64.51;101442.41;5058085;28;45442;-73
2023/10/04 06:25:34;;;;;;;;;3.00;2.00;;;;;21.02;64.58;101438.84;5077389;28;45554;-71
2023/10/04 06:28:02;;;;;;;;;2.33;2.00;;;;;21.06;64.58;101441.50;5073445;28;45444;-71
2023/10/04 06:30:31;;;;;;;;;1.00;1.00;;;;;21.12;63.95;101439.75;5056275;28;45564;-71
2023/10/04 06:33:04;;;;;;;;;2.33;1.33;;;;;21.09;63.83;101427.34;5067794;28;45436;-71
2023/10/04 06:35:32;;;;;;;;;1.67;1.67;;;;;21.08;64.29;101422.91;5062234;28;46038;-72
2023/10/04 06:38:08;;;;;;;;;3.00;2.00;;;;;20.99;64.56;101413.16;5056716;28;45312;-82
2023/10/04 06:40:35;;;;;;;;;2.67;2.00;;;;;21.01;64.14;101414.06;5072400;28;45730;-70
2023/10/04 06:43:06;;;;;;;;;4.00;2.67;;;;;21.09;63.89;101406.09;5076077;28;45537;-71
2023/10/04 06:45:33;;;;;;;;;8.33;5.67;;;;;21.14;63.87;101406.97;5056015;28;46324;-71
2023/10/04 06:48:00;;;;;;;;;4.00;3.00;;;;;21.16;64.05;101405.19;5057524;28;45544;-82
2023/10/04 06:50:28;;;;;;;;;2.00;2.00;;;;;21.21;64.07;101400.78;5066595;28;45340;-71
2023/10/04 06:52:56;;;;;;;;;3.00;3.00;;;;;21.20;63.72;101392.78;5076318;28;45386;-71
2023/10/04 06:55:22;;;;;;;;;2.67;2.00;;;;;21.36;62.95;101399.00;5056829;28;46189;-71
2023/10/04 06:57:49;;;;;;;;;5.00;3.67;;;;;21.37;63.16;101390.16;5056381;28;45537;-71
2023/10/04 07:00:20;;;;;;;;;2.00;2.00;;;;;21.46;62.72;101398.13;5038893;28;45278;-71
2023/10/04 07:02:55;;;;;;;;;5.67;5.00;;;;;21.52;61.51;101384.81;5072375;28;45500;-71
2023/10/04 07:05:23;;;;;;;;;4.33;2.67;;;;;21.71;62.26;101391.00;5076354;28;46299;-70
2023/10/04 07:07:55;;;;;;;;;2.00;2.00;;;;;21.94;61.07;101390.03;5058194;28;45322;-71
2023/10/04 07:10:22;;;;;;;;;3.33;2.67;;;;;22.16;60.17;101385.50;5076082;28;45348;-70
2023/10/04 07:12:52;;;;;;;;;2.33;2.00;;;;;22.34;60.28;101385.47;5059919;28;45236;-81
2023/10/04 07:15:19;;;;;;;;;4.33;3.00;;;;;22.34;60.08;101380.13;5073126;28;46077;-72
2023/10/04 07:17:47;;;;;;;;;4.33;2.67;;;;;22.33;60.74;101389.00;5075307;28;45396;-75
2023/10/04 07:20:16;;;;;;;;;3.00;2.67;;;;;22.34;60.46;101369.50;5075802;28;45531;-72
2023/10/04 07:22:45;;;;;;;;;3.00;2.00;;;;;22.46;60.33;101383.59;5058069;28;45540;-72
2023/10/04 07:25:13;;;;;;;;;3.00;2.33;;;;;22.48;60.24;101388.03;5049415;28;48048;-71
2023/10/04 07:27:47;;;;;;;;;1.67;1.33;;;;;22.33;59.77;101382.81;5060981;28;45464;-71
2023/10/04 07:30:14;;;;;;;;;2.00;2.00;;;;;22.28;60.75;101398.78;5054580;28;45379;-81
2023/10/04 07:32:43;;;;;;;;;1.67;1.67;;;;;22.16;60.12;101404.13;5055111;28;45525;-71
2023/10/04 07:35:19;;;;;;;;;2.33;2.33;;;;;22.07;60.56;101401.53;5055693;28;45511;-71
2023/10/04 07:37:45;;;;;;;;;4.33;3.00;;;;;22.00;60.68;101388.25;5060059;28;45479;-83
2023/10/04 07:40:15;;;;;;;;;3.67;2.67;;;;;22.05;60.76;101397.06;5070575;28;45465;-71
2023/10/04 07:42:42;;;;;;;;;4.00;2.00;;;;;22.13;60.91;101401.50;5060899;28;45247;-81
2023/10/04 07:45:10;;;;;;;;;6.00;3.33;;;;;22.06;60.23;101397.94;5078741;28;46193;-71
2023/10/04 07:47:43;;;;;;;;;2.33;2.00;;;;;22.22;60.78;101409.41;5078227;27;45588;-71
2023/10/04 07:50:11;;;;;;;;;2.00;2.00;;;;;22.38;59.82;101410.25;5042949;28;45793;-83
2023/10/04 07:52:38;;;;;;;;;2.00;2.00;;;;;22.47;59.33;101404.91;5045882;28;45525;-71
2023/10/04 07:55:05;;;;;;;;;3.00;3.00;;;;;22.51;59.10;101390.69;5057329;28;45568;-72
2023/10/04 07:57:41;;;;;;;;;3.33;2.33;;;;;22.71;59.05;101403.88;5072744;28;45251;-80
2023/10/04 08:00:14;;;;;;;;;3.33;3.00;;;;;22.92;58.15;101404.59;5058737;28;45451;-71
2023/10/04 08:02:46;;;;;;;;;2.67;2.67;;;;;23.13;57.24;101396.47;5078675;28;45382;-71
2023/10/04 08:05:19;;;;;;;;;2.67;2.33;;;;;23.22;57.33;101401.75;5066007;28;45620;-71
2023/10/04 08:07:50;;;;;;;;;3.33;3.00;;;;;23.38;57.26;101396.28;5074705;28;45535;-82
2023/10/04 08:10:16;;;;;;;;;2.00;1.67;;;;;23.50;57.18;101398.81;5058947;28;45269;-74
2023/10/04 08:12:43;;;;;;;;;4.00;3.00;;;;;23.73;56.95;101400.34;5066373;28;45434;-82
2023/10/04 08:15:19;;;;;;;;;3.00;2.33;;;;;23.89;56.70;101391.28;5066451;28;45392;-76
2023/10/04 08:17:48;;;;;;;;;3.00;2.00;;;;;24.06;56.19;101396.44;5058279;28;45964;-76
2023/10/04 08:20:14;;;;;;;;;3.00;3.00;;;;;24.23;55.95;101382.88;5047552;28;45398;-71
2023/10/04 08:22:45;;;;;;;;;3.00;2.00;;;;;24.39;55.78;101391.56;5074074;28;45515;-74
2023/10/04 08:25:13;;;;;;;;;4.00;2.33;;;;;24.52;55.66;101397.66;5048023;28;46354;-80
2023/10/04 08:27:40;;;;;;;;;2.67;2.67;;;;;24.63;55.00;101398.38;5058399;28;45526;-84
2023/10/04 08:30:07;;;;;;;;;4.00;3.00;;;;;24.80;55.41;101400.78;5064316;28;45332;-72
2023/10/04 08:32:33;;;;;;;;;5.00;4.00;;;;;24.98;54.21;101396.94;5052182;28;45580;-83
2023/10/04 08:35:00;;;;;;;;;3.33;3.00;;;;;25.18;53.95;101401.97;5040277;28;46252;-77
2023/10/04 08:37:27;;;;;;;;;3.00;3.00;;;;;25.35;53.77;101399.03;5055713;28;45739;-80
2023/10/04 08:39:53;;;;;;;;;5.67;4.00;;;;;25.58;53.05;101395.91;5058494;28;45321;-72
2023/10/04 08:42:18;;;;;;;;;3.00;2.67;;;;;25.84;52.14;101395.41;5070350;28;45473;-72
2023/10/04 08:44:45;;;;;;;;;5.00;3.00;;;;;25.91;51.76;101390.88;5076847;28;45597;-81
2023/10/04 08:47:12;;;;;;;;;4.00;4.00;;;;;25.86;51.17;101398.06;5058784;28;45320;-73
2023/10/04 08:49:55;;;;;;;;;7.67;7.67;;;;;25.95;51.48;101397.94;5065766;28;45471;-72
2023/10/04 08:52:42;;;;;;;;;5.33;5.33;;;;;26.22;51.72;101399.13;5041640;28;45580;-72
2023/10/04 08:55:13;;;;;;;;;3.67;3.00;;;;;26.29;50.84;101389.19;5040988;28;45444;-72
2023/10/04 08:57:41;;;;;;;;;7.00;6.00;;;;;26.28;50.26;101387.41;5058146;28;45472;-72
2023/10/04 09:00:13;;;;;;;;;4.00;3.00;;;;;26.60;50.15;101397.44;5063557;28;45475;-72
2023/10/04 09:02:44;;;;;;;;;3.00;3.00;;;;;26.90;49.99;101395.81;5057931;28;45626;-72
2023/10/04 09:05:15;;;;;;;;;5.00;4.00;;;;;27.10;49.21;101394.47;5055702;28;47880;-72
2023/10/04 09:07:43;;;;;;;;;4.00;3.33;;;;;27.19;48.73;101394.19;5055132;28;45454;-72
2023/10/04 09:10:15;;;;;;;;;4.00;3.00;;;;;27.32;48.42;101387.63;5073617;28;45560;-83
2023/10/04 09:12:46;;;;;;;;;3.00;3.00;;;;;27.25;47.91;101398.56;5057984;28;45327;-73
2023/10/04 09:15:13;;;;;;;;;3.00;3.00;;;;;27.21;48.72;101384.31;5057811;28;45458;-73
2023/10/04 09:17:47;;;;;;;;;4.00;3.00;;;;;27.41;48.57;101391.00;5057640;28;45438;-75
2023/10/04 09:20:17;;;;;;;;;3.33;3.33;;;;;27.49;48.49;101379.13;5058983;28;45536;-72
2023/10/04 09:22:43;;;;;;;;;3.67;3.00;;;;;27.40;47.96;101376.72;5067207;28;45457;-75
2023/10/04 09:25:10;;;;;;;;;3.00;3.00;;;;;27.50;47.65;101386.25;5057052;28;45487;-72
2023/10/04 09:27:37;;;;;;;;;6.67;6.33;;;;;27.64;47.66;101374.28;5056495;28;45373;-78
2023/10/04 09:30:23;;;;;;;;;3.67;3.00;;;;;27.47;47.77;101372.03;5077216;28;45501;-75
2023/10/04 09:32:51;;;;;;;;;3.00;3.00;;;;;27.66;47.88;101383.16;5060020;28;45494;-72
2023/10/04 09:35:20;;;;;;;;;3.00;3.00;;;;;27.52;47.07;101378.19;5066874;27;45534;-73
2023/10/04 09:37:50;;;;;;;;;3.00;3.00;;;;;27.62;48.15;101365.38;5075669;28;45551;-74
2023/10/04 09:40:17;;;;;;;;;2.00;2.00;;;;;28.16;47.10;101375.47;5042204;28;45463;-81
2023/10/04 09:42:56;;;;;;;;;6.33;5.00;;;;;28.53;46.23;101374.34;5072383;27;45410;-73
2023/10/04 09:45:26;;;;;;;;;4.33;3.67;;;;;29.04;45.57;101376.25;5049575;28;46623;-73
2023/10/04 09:47:53;;;;;;;;;3.00;2.67;;;;;29.08;45.75;101377.03;5075847;28;45251;-84
2023/10/04 09:50:23;;;;;;;;;2.33;2.33;;;;;29.51;44.67;101365.69;5056735;28;45485;-72
2023/10/04 09:52:53;;;;;;;;;5.33;4.00;;;;;29.80;44.35;101361.06;5043693;28;45548;-72
2023/10/04 09:55:22;;;;;;;;;3.00;3.00;;;;;30.06;43.26;101367.28;5055343;28;46475;-83
2023/10/04 09:57:49;;;;;;;;;3.33;2.67;;;;;30.43;42.77;101365.88;5071059;28;45458;-84
2023/10/04 10:00:18;;;;;;;;;4.33;4.00;;;;;30.90;42.43;101363.97;5076895;28;45428;-84
2023/10/04 10:02:51;;;;;;;;;3.00;3.00;;;;;31.39;41.98;101351.97;5070899;28;45508;-72
2023/10/04 10:05:34;;;;;;;;;2.67;2.67;;;;;31.98;40.56;101361.91;5066354;28;46091;-72
2023/10/04 10:08:06;;;;;;;;;8.00;5.00;;;;;32.13;39.59;101357.63;5059653;28;45543;-73
2023/10/04 10:10:34;;;;;;;;;4.33;3.00;;;;;32.13;40.96;101352.22;5070974;27;45554;-72
2023/10/04 10:13:01;;;;;;;;;10.33;9.67;;;;;32.03;40.12;101343.69;5076704;28;45340;-73
2023/10/04 10:15:27;;;;;;;;;4.67;2.67;;;;;32.13;40.33;101344.09;5043511;28;45224;-73
2023/10/04 10:17:53;;;;;;;;;5.00;3.00;;;;;32.47;40.98;101343.38;5049108;28;45491;-72
2023/10/04 10:20:19;;;;;;;;;4.33;4.33;;;;;32.78;40.21;101336.44;5073856;28;45569;-72
2023/10/04 10:22:57;;;;;;;;;17.33;16.33;;;;;33.18;39.07;101329.00;5076785;28;45486;-81
2023/10/04 10:25:25;;;;;;;;;3.67;3.00;;;;;32.83;39.66;101328.97;5057920;28;45551;-72
2023/10/04 10:27:56;;;;;;;;;4.67;4.33;;;;;32.79;39.85;101323.78;5060006;28;45490;-72
2023/10/04 10:30:23;;;;;;;;;6.67;5.67;;;;;32.78;39.83;101331.03;5061301;28;45382;-73
2023/10/04 10:32:55;;;;;;;;;5.33;4.33;;;;;33.04;39.09;101320.69;5076866;28;45544;-72
2023/10/04 10:35:51;;;;;;;;;6.00;5.00;;;;;32.90;39.16;101307.88;5061875;28;46169;-72
2023/10/04 10:38:41;;;;;;;;;4.33;4.00;;;;;32.72;39.50;101319.66;5048247;28;45456;-73
2023/10/04 10:41:11;;;;;;;;;5.00;4.00;;;;;32.86;39.71;101295.47;5058649;28;45798;-73
2023/10/04 10:44:11;;;;;;;;;6.00;5.00;;;;;32.90;40.52;101305.16;5041574;27;45543;-83
2023/10/04 10:47:10;;;;;;;;;22.33;21.67;;;;;32.68;39.35;101308.09;5075881;28;45429;-73
2023/10/04 10:49:50;;;;;;;;;7.33;6.00;;;;;32.71;40.18;101299.84;5064695;28;45429;-73
2023/10/04 10:52:34;;;;;;;;;9.00;8.00;;;;;32.89;39.44;101290.78;5065576;28;45322;-73
2023/10/04 10:55:07;;;;;;;;;9.00;8.67;;;;;32.75;39.83;101297.84;5072266;28;45523;-73
2023/10/04 10:57:38;;;;;;;;;3.67;3.33;;;;;32.49;39.84;101297.28;5071316;28;45288;-73
2023/10/04 11:00:13;;;;;;;;;5.00;4.67;;;;;32.45;40.66;101282.16;5065241;28;45297;-73
2023/10/04 11:02:39;;;;;;;;;14.33;13.33;;;;;32.37;41.12;101282.59;5058194;28;45527;-72
2023/10/04 11:05:06;;;;;;;;;5.33;4.00;;;;;31.92;41.29;101278.44;5074557;28;45583;-73
2023/10/04 11:07:32;;;;;;;;;4.00;4.00;;;;;31.65;41.80;101281.47;5075705;28;45531;-73
2023/10/04 11:09:58;;;;;;;;;6.00;6.00;;;;;31.60;41.82;101277.25;5064593;28;45464;-81
2023/10/04 11:12:25;;;;;;;;;4.33;4.00;;;;;31.73;41.99;101285.66;5071930;28;45516;-74
2023/10/04 11:14:51;;;;;;;;;7.00;6.00;;;;;31.43;42.52;101281.56;5076407;28;45222;-72
2023/10/04 11:17:20;;;;;;;;;4.33;4.33;;;;;31.40;42.74;101289.81;5078464;27;46001;-80
2023/10/04 11:19:46;;;;;;;;;7.33;5.33;;;;;31.37;42.50;101279.13;5079857;28;45295;-73
2023/10/04 11:22:14;;;;;;;;;14.00;11.00;;;;;31.60;42.10;101280.81;5079628;28;45390;-72
2023/10/04 11:24:40;;;;;;;;;8.33;8.33;;;;;31.80;42.16;101265.50;5065807;28;45612;-73
2023/10/04 11:27:10;;;;;;;;;7.33;7.00;;;;;31.67;42.24;101276.88;5047883;28;45516;-79
2023/10/04 11:29:37;;;;;;;;;5.00;5.00;;;;;31.39;42.31;101263.75;5052451;28;45348;-81
2023/10/04 11:32:05;;;;;;;;;6.00;4.67;;;;;31.21;42.63;101256.50;5064437;28;45759;-73
2023/10/04 11:34:37;;;;;;;;;8.67;8.67;;;;;31.23;42.55;101260.88;5078661;28;45492;-73
2023/10/04 11:37:04;;;;;;;;;5.00;5.00;;;;;31.10;43.24;101249.75;5050387;28;45632;-73